Maersk Kobe — 9HA3376 — position and weather

sailwx.info

Track history (hours):
 
Tides and Currents Weather Stations Pressure Air Temp Water Temp Dewpoint Dewpoint Depression Visibility Wind Speed Wind Dir Waves Ship Positions

Maersk Kobe

Last reported at 2017-Oct-17 11:28 UTC. Time now 2017-Oct-17 11:43 UTC.
Position N 44°25' E 008°47'.

Length 304 m; draft 11 m.

Type: Cargo ship. MMSI: 229521000.

Date/timePositionNaut miles runAvg speedWind from/ knotsBaromVisibWave heightAir tempDewpointWater temp
2017-Oct-17 11:28N 44°25' E 008°47'0 0.0
2017-Oct-17 10:58N 44°25' E 008°47'0 0.0
2017-Oct-17 10:28N 44°25' E 008°47'0 0.0
2017-Oct-17 09:58N 44°25' E 008°47'0 0.0
2017-Oct-17 09:28N 44°25' E 008°47'0 0.0
2017-Oct-17 08:58N 44°25' E 008°47'0 0.0
2017-Oct-17 08:28N 44°25' E 008°47'0 0.0
2017-Oct-17 07:58N 44°25' E 008°47'0 0.0
2017-Oct-17 07:28N 44°25' E 008°47'0 0.0
2017-Oct-17 06:58N 44°25' E 008°47'0 0.0
2017-Oct-17 06:28N 44°25' E 008°47'0 0.0
2017-Oct-17 05:58N 44°25' E 008°47'0 0.0
2017-Oct-17 05:28N 44°25' E 008°47'0 0.0
2017-Oct-17 04:58N 44°25' E 008°47'0 0.4
2017-Oct-17 04:30N 44°25' E 008°47'2 4.9
2017-Oct-17 04:00N 44°24' E 008°44'1 1.8
2017-Oct-17 03:30N 44°23' E 008°44'0 0.1
2017-Oct-17 03:00N 44°23' E 008°44'3 6.2
2017-Oct-17 02:30N 44°20' E 008°45'713.5
2017-Oct-17 02:01N 44°16' E 008°53'715.0
2017-Oct-17 01:31N 44°12' E 009°01'816.1
2017-Oct-17 01:01N 44°08' E 009°11'917.8
2017-Oct-17 00:30N 44°03' E 009°21'917.6
2017-Oct-17 00:01N 43°58' E 009°31'917.6
2017-Oct-16 23:31N 43°54' E 009°42'713.4
2017-Oct-16 22:58N 43°57' E 009°51'613.7
2017-Oct-16 22:30N 44°03' E 009°52'3 6.1
2017-Oct-16 21:59N 44°06' E 009°51'0 0.0
2017-Oct-16 21:26N 44°06' E 009°51'0 0.0
2017-Oct-16 20:56N 44°06' E 009°51'0 0.0
2017-Oct-16 20:23N 44°06' E 009°51'0 0.1
2017-Oct-16 19:56N 44°06' E 009°51'0 0.0
2017-Oct-16 19:23N 44°06' E 009°51'0 0.0
2017-Oct-16 18:50N 44°06' E 009°51'0 0.0
2017-Oct-16 18:26N 44°06' E 009°51'0 0.0
2017-Oct-16 17:59N 44°06' E 009°51'0 0.0
2017-Oct-16 17:14N 44°06' E 009°51'0 0.1
2017-Oct-16 16:59N 44°06' E 009°51'0 0.0
2017-Oct-16 16:29N 44°06' E 009°51'0 0.0
2017-Oct-16 15:59N 44°06' E 009°51'0 0.0
2017-Oct-16 15:29N 44°06' E 009°51'0 0.0
2017-Oct-16 14:59N 44°06' E 009°51'0 0.0
2017-Oct-16 13:59N 44°06' E 009°51'0 0.0
2017-Oct-16 13:29N 44°06' E 009°51'0 0.0
2017-Oct-16 12:59N 44°06' E 009°51'0 0.0
2017-Oct-16 12:29N 44°06' E 009°51'0 0.0
2017-Oct-16 11:59N 44°06' E 009°51'0 0.0
2017-Oct-16 11:23N 44°06' E 009°51'0 0.0
2017-Oct-16 10:53N 44°06' E 009°51'0 0.0
2017-Oct-16 10:26N 44°06' E 009°51'0 0.0
2017-Oct-16 09:59N 44°06' E 009°51'0 0.0
2017-Oct-16 09:29N 44°06' E 009°51'0 0.0
2017-Oct-16 08:56N 44°06' E 009°51'0 0.0
2017-Oct-16 08:29N 44°06' E 009°51'0 0.0
2017-Oct-16 07:59N 44°06' E 009°51'0 0.0
2017-Oct-16 07:29N 44°06' E 009°51'0 0.0
2017-Oct-16 06:56N 44°06' E 009°51'0 0.0
2017-Oct-16 06:29N 44°06' E 009°51'0 0.0
2017-Oct-16 05:59N 44°06' E 009°51'0 0.0
2017-Oct-16 05:29N 44°06' E 009°51'0 0.0
2017-Oct-16 04:59N 44°06' E 009°51'0 0.0
2017-Oct-16 04:29N 44°06' E 009°51'0 0.0
2017-Oct-16 03:59N 44°06' E 009°51'0 0.0
2017-Oct-16 03:23N 44°06' E 009°51'0 0.0
2017-Oct-16 02:56N 44°06' E 009°51'0 0.0
2017-Oct-16 02:29N 44°06' E 009°51'0 0.0
2017-Oct-16 01:59N 44°06' E 009°51'0 0.0
2017-Oct-16 01:27N 44°06' E 009°51'1 1.5
2017-Oct-16 01:00N 44°06' E 009°51'4 7.2
2017-Oct-16 00:30N 44°03' E 009°53'4 8.0
2017-Oct-16 00:00N 43°59' E 009°55'3 6.1
2017-Oct-15 23:30N 43°59' E 009°51'0 0.7
2017-Oct-15 22:59N 43°58' E 009°51'0 0.0
2017-Oct-15 22:29N 43°58' E 009°51'0 0.0
2017-Oct-15 21:59N 43°58' E 009°51'0 0.1
2017-Oct-15 21:29N 43°58' E 009°51'0 0.0
2017-Oct-15 20:56N 43°58' E 009°51'0 0.1
2017-Oct-15 20:29N 43°58' E 009°51'0 0.0
2017-Oct-15 19:59N 43°58' E 009°51'0 0.0
2017-Oct-15 19:20N 43°58' E 009°51'0 0.0
2017-Oct-15 18:59N 43°58' E 009°51'0 0.0
2017-Oct-15 18:29N 43°58' E 009°51'0 0.0
2017-Oct-15 17:59N 43°58' E 009°51'0 0.0
2017-Oct-15 17:26N 43°58' E 009°51'0 0.0
2017-Oct-15 16:53N 43°58' E 009°51'0 0.0
2017-Oct-15 16:29N 43°58' E 009°51'0 0.0
2017-Oct-15 15:59N 43°58' E 009°51'0 0.0
2017-Oct-15 15:29N 43°59' E 009°51'0 0.0
2017-Oct-15 14:59N 43°58' E 009°51'0 0.0
2017-Oct-15 13:59N 43°59' E 009°51'0 0.0
2017-Oct-15 13:29N 43°59' E 009°51'0 0.0
2017-Oct-15 12:59N 43°59' E 009°51'0 0.0
2017-Oct-15 12:29N 43°58' E 009°51'0 0.0
2017-Oct-15 11:59N 43°58' E 009°51'0 0.0
2017-Oct-15 11:29N 43°59' E 009°51'0 0.0
2017-Oct-15 10:59N 43°58' E 009°51'0 0.0
2017-Oct-15 10:29N 43°58' E 009°51'0 0.1
2017-Oct-15 09:59N 43°58' E 009°51'0 0.1
2017-Oct-15 09:29N 43°58' E 009°51'0 0.0
2017-Oct-15 08:59N 43°58' E 009°51'0 0.1
2017-Oct-15 08:29N 43°58' E 009°51'0 0.0
2017-Oct-15 07:59N 43°58' E 009°51'0 0.0
2017-Oct-15 07:29N 43°58' E 009°51'0 0.0
2017-Oct-15 06:59N 43°58' E 009°51'0 0.0
2017-Oct-15 06:29N 43°58' E 009°51'0 0.0
2017-Oct-15 05:59N 43°58' E 009°51'0 0.0
2017-Oct-15 05:29N 43°58' E 009°51'0 0.0
2017-Oct-15 04:59N 43°58' E 009°51'0 0.0
2017-Oct-15 04:26N 43°58' E 009°51'0 0.0
2017-Oct-15 03:59N 43°58' E 009°51'0 0.0
2017-Oct-15 03:29N 43°58' E 009°51'0 0.0
2017-Oct-15 02:59N 43°58' E 009°51'0 0.0
2017-Oct-15 02:29N 43°58' E 009°51'0 0.0
2017-Oct-15 01:59N 43°58' E 009°51'0 0.0
2017-Oct-15 01:29N 43°58' E 009°51'0 0.0
2017-Oct-15 00:59N 43°58' E 009°51'0 0.0
2017-Oct-15 00:29N 43°58' E 009°51'0 0.0
2017-Oct-14 23:59N 43°58' E 009°51'0 0.0
2017-Oct-14 23:29N 43°58' E 009°51'0 0.1
2017-Oct-14 22:59N 43°58' E 009°51'0 0.0
2017-Oct-14 22:29N 43°58' E 009°51'0 0.1
2017-Oct-14 21:59N 43°58' E 009°51'0 0.0
2017-Oct-14 21:29N 43°58' E 009°51'0 0.0
2017-Oct-14 20:53N 43°58' E 009°51'0 0.1
2017-Oct-14 20:29N 43°58' E 009°51'0 0.0
2017-Oct-14 19:56N 43°58' E 009°51'0 0.0
2017-Oct-14 19:29N 43°58' E 009°51'0 0.0
2017-Oct-14 18:41N 43°58' E 009°51'0 0.4
2017-Oct-14 18:29N 43°58' E 009°51'1 2.6
2017-Oct-14 18:01N 43°57' E 009°51'3 6.4
2017-Oct-14 17:30N 43°54' E 009°52'610.8
2017-Oct-14 16:57N 43°48' E 009°50'511.8
2017-Oct-14 16:31N 43°43' E 009°47'611.7
2017-Oct-14 15:59N 43°37' E 009°46'5 9.8
2017-Oct-14 15:30N 43°33' E 009°49'611.6
2017-Oct-14 15:00N 43°31' E 009°56'611.9
2017-Oct-14 14:31N 43°29' E 010°04'611.0
2017-Oct-14 14:00N 43°30' E 010°12'4 8.8
2017-Oct-14 13:31N 43°32' E 010°17'2 4.6
2017-Oct-14 13:00N 43°34' E 010°18'0 0.3
2017-Oct-14 12:28N 43°35' E 010°18'0 0.0
2017-Oct-14 11:58N 43°34' E 010°18'0 0.0
2017-Oct-14 11:25N 43°35' E 010°18'0 0.0
2017-Oct-14 10:55N 43°35' E 010°18'0 0.0
2017-Oct-14 10:28N 43°35' E 010°18'0 0.0
2017-Oct-14 09:58N 43°35' E 010°18'0 0.0
2017-Oct-14 09:25N 43°35' E 010°18'0 0.0
2017-Oct-14 08:58N 43°34' E 010°18'0 0.0
2017-Oct-14 08:28N 43°35' E 010°18'0 0.0
2017-Oct-14 07:58N 43°35' E 010°18'0 0.0
2017-Oct-14 07:28N 43°35' E 010°18'0 0.0
2017-Oct-14 06:52N 43°35' E 010°18'0 0.0
2017-Oct-14 06:28N 43°34' E 010°18'0 0.0
2017-Oct-14 05:52N 43°35' E 010°18'0 0.0
2017-Oct-14 05:28N 43°35' E 010°18'0 0.0
2017-Oct-14 04:58N 43°35' E 010°18'0 0.0
2017-Oct-14 04:28N 43°35' E 010°18'0 0.0
2017-Oct-14 03:58N 43°35' E 010°18'0 0.0
2017-Oct-14 03:28N 43°34' E 010°18'0 0.0
2017-Oct-14 02:55N 43°35' E 010°18'0 0.0
2017-Oct-14 02:28N 43°35' E 010°18'0 0.0
2017-Oct-14 01:55N 43°35' E 010°18'0 0.0
2017-Oct-14 01:28N 43°35' E 010°18'0 0.0
2017-Oct-14 00:55N 43°35' E 010°18'0 0.0
2017-Oct-14 00:28N 43°35' E 010°18'0 0.0
2017-Oct-13 23:58N 43°35' E 010°18'0 0.0
2017-Oct-13 23:25N 43°35' E 010°18'0 0.0
2017-Oct-13 22:55N 43°35' E 010°18'0 0.0
2017-Oct-13 22:28N 43°35' E 010°18'0 0.0
2017-Oct-13 21:58N 43°35' E 010°18'0 0.0
2017-Oct-13 21:16N 43°35' E 010°18'0 0.0
2017-Oct-13 20:58N 43°34' E 010°18'0 0.0
2017-Oct-13 20:19N 43°35' E 010°18'0 0.0
2017-Oct-13 19:52N 43°35' E 010°18'0 0.0
2017-Oct-13 19:28N 43°35' E 010°18'0 0.0
2017-Oct-13 18:58N 43°35' E 010°18'0 0.0
2017-Oct-13 18:25N 43°34' E 010°18'0 0.0
2017-Oct-13 17:58N 43°35' E 010°18'0 0.0
2017-Oct-13 17:25N 43°35' E 010°18'0 0.0
2017-Oct-13 16:58N 43°35' E 010°18'0 0.0
2017-Oct-13 16:28N 43°35' E 010°18'0 0.0
2017-Oct-13 15:58N 43°35' E 010°18'0 0.0
2017-Oct-13 15:08N 43°35' E 010°18'0 0.5
2017-Oct-13 15:00N 43°34' E 010°18'2 3.3
2017-Oct-13 14:27N 43°33' E 010°17'2 4.2
2017-Oct-13 14:00N 43°31' E 010°16'4 7.1
2017-Oct-13 13:29N 43°29' E 010°12'714.4
2017-Oct-13 13:00N 43°22' E 010°10'713.6
2017-Oct-13 12:30N 43°15' E 010°08'713.7
2017-Oct-13 12:00N 43°09' E 010°06'713.6
2017-Oct-13 11:30N 43°02' E 010°05'713.5
2017-Oct-13 11:00N 42°55' E 010°03'714.0
2017-Oct-13 10:30N 42°48' E 010°01'814.5
2017-Oct-13 09:56N 42°40' E 009°59'3112.5
2017-Oct-13 07:29N 42°12' E 010°15'714.5
2017-Oct-13 07:00N 42°09' E 010°23'18214.2
2017-Oct-12 18:10N 40°38' E 013°54'211.8
2017-Oct-12 18:00N 40°38' E 013°56'611.3
2017-Oct-12 17:30N 40°39' E 014°03'611.8
2017-Oct-12 17:00N 40°42' E 014°10'611.6
2017-Oct-12 16:30N 40°46' E 014°16'4 8.6
2017-Oct-12 16:00N 40°50' E 014°18'1 0.9
2017-Oct-12 15:21N 40°50' E 014°17'0 0.0
2017-Oct-12 14:51N 40°50' E 014°17'0 0.0
2017-Oct-12 14:21N 40°50' E 014°17'0 0.0
2017-Oct-12 13:39N 40°50' E 014°17'0 0.0
2017-Oct-12 13:24N 40°50' E 014°17'0 0.0
2017-Oct-12 12:51N 40°50' E 014°17'0 0.0
2017-Oct-12 11:51N 40°50' E 014°17'0 0.0
2017-Oct-12 11:21N 40°50' E 014°17'0 0.0
2017-Oct-12 10:57N 40°50' E 014°17'0 0.0
2017-Oct-12 10:21N 40°50' E 014°17'0 0.0
2017-Oct-12 08:27N 40°50' E 014°17'0 0.0
2017-Oct-12 07:57N 40°50' E 014°17'0 0.0
2017-Oct-12 07:27N 40°50' E 014°17'0 0.0
2017-Oct-12 06:57N 40°50' E 014°17'0 0.0
2017-Oct-12 06:27N 40°50' E 014°17'0 0.0
2017-Oct-11 18:09N 40°50' E 014°17'0 0.0
2017-Oct-11 17:57N 40°50' E 014°17'0 0.0
2017-Oct-11 17:27N 40°50' E 014°17'0 0.3
2017-Oct-11 17:00N 40°50' E 014°17'161 9.4
2017-Oct-10 23:51N 38°28' E 015°55'0 0.0
2017-Oct-10 23:21N 38°28' E 015°55'0 0.0
2017-Oct-10 23:00N 38°28' E 015°55'0 0.0
2017-Oct-10 22:27N 38°28' E 015°55'0 0.0
2017-Oct-10 22:00N 38°28' E 015°55'0 0.0
2017-Oct-10 21:03N 38°28' E 015°55'0 0.0
2017-Oct-10 20:57N 38°28' E 015°55'0 0.0
2017-Oct-10 19:27N 38°28' E 015°55'0 0.0
2017-Oct-10 07:51N 38°28' E 015°55'0 0.0
2017-Oct-10 07:30N 38°28' E 015°55'0 0.0
2017-Oct-10 06:51N 38°28' E 015°55'0 0.0
2017-Oct-10 06:30N 38°28' E 015°55'0 0.0
2017-Oct-10 06:00N 38°28' E 015°55'0 0.0
2017-Oct-10 05:27N 38°28' E 015°55'0 0.0
2017-Oct-10 04:54N 38°28' E 015°55'0 0.0
2017-Oct-10 04:30N 38°28' E 015°55'0 0.0
2017-Oct-10 04:00N 38°28' E 015°55'0 0.0
2017-Oct-10 03:30N 38°28' E 015°55'0 0.0
2017-Oct-10 03:00N 38°28' E 015°55'0 0.0
2017-Oct-10 02:27N 38°28' E 015°55'0 0.0
2017-Oct-10 02:00N 38°28' E 015°55'1 2.0
2017-Oct-10 01:30N 38°27' E 015°54'2 4.0
2017-Oct-10 01:00N 38°27' E 015°52'510.1
2017-Oct-10 00:30N 38°27' E 015°45'917.0
2017-Oct-10 00:00N 38°26' E 015°34'1019.2
2017-Oct-09 23:30N 38°25' E 015°22'918.9
2017-Oct-09 23:01N 38°22' E 015°11'918.6
2017-Oct-09 22:30N 38°19' E 014°60'918.4
2017-Oct-09 22:00N 38°19' E 014°48'918.4
2017-Oct-09 21:30N 38°19' E 014°36'918.7
2017-Oct-09 21:00N 38°19' E 014°24'1018.5
2017-Oct-09 20:28N 38°20' E 014°11'818.3
2017-Oct-09 20:00N 38°20' E 014°01'918.5
2017-Oct-09 19:30N 38°21' E 013°49'917.4
2017-Oct-09 19:00N 38°22' E 013°38'713.4
2017-Oct-09 18:30N 38°22' E 013°29'713.5
2017-Oct-09 18:00N 38°23' E 013°21'713.6
2017-Oct-09 17:30N 38°23' E 013°12'713.7
2017-Oct-09 17:00N 38°24' E 013°03'713.8
2017-Oct-09 16:30N 38°24' E 012°55'713.6
2017-Oct-09 16:00N 38°25' E 012°46'713.5
2017-Oct-09 15:30N 38°25' E 012°37'713.4
2017-Oct-09 15:00N 38°26' E 012°29'713.4
2017-Oct-09 14:29N 38°26' E 012°20'13714.0
2017-Oct-09 04:41N 38°37' E 009°25'212.9
2017-Oct-09 04:30N 38°37' E 009°22'713.0
2017-Oct-09 04:00N 38°38' E 009°14'813.2
2017-Oct-09 03:24N 38°38' E 009°04'913.2
2017-Oct-09 02:45N 38°39' E 008°53'413.3
2017-Oct-09 02:29N 38°39' E 008°48'613.2
2017-Oct-09 02:00N 38°39' E 008°40'26113.3
2017-Oct-08 06:24N 38°60' E 003°06'513.0
2017-Oct-08 06:00N 39°01' E 002°59'713.1
2017-Oct-08 05:30N 39°02' E 002°51'713.1
2017-Oct-08 05:00N 39°04' E 002°43'713.2
2017-Oct-08 04:30N 39°05' E 002°34'713.0
2017-Oct-08 04:00N 39°06' E 002°26'712.9
2017-Oct-08 03:29N 39°07' E 002°17'  
Track history (hours):
 
Tides and Currents Weather Stations Pressure Air Temp Water Temp Dewpoint Dewpoint Depression Visibility Wind Speed Wind Dir Waves Ship Positions

Maersk Kobe

Last reported at 2017-Oct-17 11:28 UTC. Time now 2017-Oct-17 11:43 UTC.
Position N 44°25' E 008°47'.

Length 304 m; draft 11 m.

Type: Cargo ship. MMSI: 229521000.

Date/timePositionNaut miles runAvg speedWind from/ knotsBaromVisibWave heightAir tempDewpointWater temp
2017-Oct-17 11:28N 44°25' E 008°47'0 0.0
2017-Oct-17 10:58N 44°25' E 008°47'0 0.0
2017-Oct-17 10:28N 44°25' E 008°47'0 0.0
2017-Oct-17 09:58N 44°25' E 008°47'0 0.0
2017-Oct-17 09:28N 44°25' E 008°47'0 0.0
2017-Oct-17 08:58N 44°25' E 008°47'0 0.0
2017-Oct-17 08:28N 44°25' E 008°47'0 0.0
2017-Oct-17 07:58N 44°25' E 008°47'0 0.0
2017-Oct-17 07:28N 44°25' E 008°47'0 0.0
2017-Oct-17 06:58N 44°25' E 008°47'0 0.0
2017-Oct-17 06:28N 44°25' E 008°47'0 0.0
2017-Oct-17 05:58N 44°25' E 008°47'0 0.0
2017-Oct-17 05:28N 44°25' E 008°47'0 0.0
2017-Oct-17 04:58N 44°25' E 008°47'0 0.4
2017-Oct-17 04:30N 44°25' E 008°47'2 4.9
2017-Oct-17 04:00N 44°24' E 008°44'1 1.8
2017-Oct-17 03:30N 44°23' E 008°44'0 0.1
2017-Oct-17 03:00N 44°23' E 008°44'3 6.2
2017-Oct-17 02:30N 44°20' E 008°45'713.5
2017-Oct-17 02:01N 44°16' E 008°53'715.0
2017-Oct-17 01:31N 44°12' E 009°01'816.1
2017-Oct-17 01:01N 44°08' E 009°11'917.8
2017-Oct-17 00:30N 44°03' E 009°21'917.6
2017-Oct-17 00:01N 43°58' E 009°31'917.6
2017-Oct-16 23:31N 43°54' E 009°42'713.4
2017-Oct-16 22:58N 43°57' E 009°51'613.7
2017-Oct-16 22:30N 44°03' E 009°52'3 6.1
2017-Oct-16 21:59N 44°06' E 009°51'0 0.0
2017-Oct-16 21:26N 44°06' E 009°51'0 0.0
2017-Oct-16 20:56N 44°06' E 009°51'0 0.0
2017-Oct-16 20:23N 44°06' E 009°51'0 0.1
2017-Oct-16 19:56N 44°06' E 009°51'0 0.0
2017-Oct-16 19:23N 44°06' E 009°51'0 0.0
2017-Oct-16 18:50N 44°06' E 009°51'0 0.0
2017-Oct-16 18:26N 44°06' E 009°51'0 0.0
2017-Oct-16 17:59N 44°06' E 009°51'0 0.0
2017-Oct-16 17:14N 44°06' E 009°51'0 0.1
2017-Oct-16 16:59N 44°06' E 009°51'0 0.0
2017-Oct-16 16:29N 44°06' E 009°51'0 0.0
2017-Oct-16 15:59N 44°06' E 009°51'0 0.0
2017-Oct-16 15:29N 44°06' E 009°51'0 0.0
2017-Oct-16 14:59N 44°06' E 009°51'0 0.0
2017-Oct-16 13:59N 44°06' E 009°51'0 0.0
2017-Oct-16 13:29N 44°06' E 009°51'0 0.0
2017-Oct-16 12:59N 44°06' E 009°51'0 0.0
2017-Oct-16 12:29N 44°06' E 009°51'0 0.0
2017-Oct-16 11:59N 44°06' E 009°51'0 0.0
2017-Oct-16 11:23N 44°06' E 009°51'0 0.0
2017-Oct-16 10:53N 44°06' E 009°51'0 0.0
2017-Oct-16 10:26N 44°06' E 009°51'0 0.0
2017-Oct-16 09:59N 44°06' E 009°51'0 0.0
2017-Oct-16 09:29N 44°06' E 009°51'0 0.0
2017-Oct-16 08:56N 44°06' E 009°51'0 0.0
2017-Oct-16 08:29N 44°06' E 009°51'0 0.0
2017-Oct-16 07:59N 44°06' E 009°51'0 0.0
2017-Oct-16 07:29N 44°06' E 009°51'0 0.0
2017-Oct-16 06:56N 44°06' E 009°51'0 0.0
2017-Oct-16 06:29N 44°06' E 009°51'0 0.0
2017-Oct-16 05:59N 44°06' E 009°51'0 0.0
2017-Oct-16 05:29N 44°06' E 009°51'0 0.0
2017-Oct-16 04:59N 44°06' E 009°51'0 0.0
2017-Oct-16 04:29N 44°06' E 009°51'0 0.0
2017-Oct-16 03:59N 44°06' E 009°51'0 0.0
2017-Oct-16 03:23N 44°06' E 009°51'0 0.0
2017-Oct-16 02:56N 44°06' E 009°51'0 0.0
2017-Oct-16 02:29N 44°06' E 009°51'0 0.0
2017-Oct-16 01:59N 44°06' E 009°51'0 0.0
2017-Oct-16 01:27N 44°06' E 009°51'1 1.5
2017-Oct-16 01:00N 44°06' E 009°51'4 7.2
2017-Oct-16 00:30N 44°03' E 009°53'4 8.0
2017-Oct-16 00:00N 43°59' E 009°55'3 6.1
2017-Oct-15 23:30N 43°59' E 009°51'0 0.7
2017-Oct-15 22:59N 43°58' E 009°51'0 0.0
2017-Oct-15 22:29N 43°58' E 009°51'0 0.0
2017-Oct-15 21:59N 43°58' E 009°51'0 0.1
2017-Oct-15 21:29N 43°58' E 009°51'0 0.0
2017-Oct-15 20:56N 43°58' E 009°51'0 0.1
2017-Oct-15 20:29N 43°58' E 009°51'0 0.0
2017-Oct-15 19:59N 43°58' E 009°51'0 0.0
2017-Oct-15 19:20N 43°58' E 009°51'0 0.0
2017-Oct-15 18:59N 43°58' E 009°51'0 0.0
2017-Oct-15 18:29N 43°58' E 009°51'0 0.0
2017-Oct-15 17:59N 43°58' E 009°51'0 0.0
2017-Oct-15 17:26N 43°58' E 009°51'0 0.0
2017-Oct-15 16:53N 43°58' E 009°51'0 0.0
2017-Oct-15 16:29N 43°58' E 009°51'0 0.0
2017-Oct-15 15:59N 43°58' E 009°51'0 0.0
2017-Oct-15 15:29N 43°59' E 009°51'0 0.0
2017-Oct-15 14:59N 43°58' E 009°51'0 0.0
2017-Oct-15 13:59N 43°59' E 009°51'0 0.0
2017-Oct-15 13:29N 43°59' E 009°51'0 0.0
2017-Oct-15 12:59N 43°59' E 009°51'0 0.0
2017-Oct-15 12:29N 43°58' E 009°51'0 0.0
2017-Oct-15 11:59N 43°58' E 009°51'0 0.0
2017-Oct-15 11:29N 43°59' E 009°51'0 0.0
2017-Oct-15 10:59N 43°58' E 009°51'0 0.0
2017-Oct-15 10:29N 43°58' E 009°51'0 0.1
2017-Oct-15 09:59N 43°58' E 009°51'0 0.1
2017-Oct-15 09:29N 43°58' E 009°51'0 0.0
2017-Oct-15 08:59N 43°58' E 009°51'0 0.1
2017-Oct-15 08:29N 43°58' E 009°51'0 0.0
2017-Oct-15 07:59N 43°58' E 009°51'0 0.0
2017-Oct-15 07:29N 43°58' E 009°51'0 0.0
2017-Oct-15 06:59N 43°58' E 009°51'0 0.0
2017-Oct-15 06:29N 43°58' E 009°51'0 0.0
2017-Oct-15 05:59N 43°58' E 009°51'0 0.0
2017-Oct-15 05:29N 43°58' E 009°51'0 0.0
2017-Oct-15 04:59N 43°58' E 009°51'0 0.0
2017-Oct-15 04:26N 43°58' E 009°51'0 0.0
2017-Oct-15 03:59N 43°58' E 009°51'0 0.0
2017-Oct-15 03:29N 43°58' E 009°51'0 0.0
2017-Oct-15 02:59N 43°58' E 009°51'0 0.0
2017-Oct-15 02:29N 43°58' E 009°51'0 0.0
2017-Oct-15 01:59N 43°58' E 009°51'0 0.0
2017-Oct-15 01:29N 43°58' E 009°51'0 0.0
2017-Oct-15 00:59N 43°58' E 009°51'0 0.0
2017-Oct-15 00:29N 43°58' E 009°51'0 0.0
2017-Oct-14 23:59N 43°58' E 009°51'0 0.0
2017-Oct-14 23:29N 43°58' E 009°51'0 0.1
2017-Oct-14 22:59N 43°58' E 009°51'0 0.0
2017-Oct-14 22:29N 43°58' E 009°51'0 0.1
2017-Oct-14 21:59N 43°58' E 009°51'0 0.0
2017-Oct-14 21:29N 43°58' E 009°51'0 0.0
2017-Oct-14 20:53N 43°58' E 009°51'0 0.1
2017-Oct-14 20:29N 43°58' E 009°51'0 0.0
2017-Oct-14 19:56N 43°58' E 009°51'0 0.0
2017-Oct-14 19:29N 43°58' E 009°51'0 0.0
2017-Oct-14 18:41N 43°58' E 009°51'0 0.4
2017-Oct-14 18:29N 43°58' E 009°51'1 2.6
2017-Oct-14 18:01N 43°57' E 009°51'3 6.4
2017-Oct-14 17:30N 43°54' E 009°52'610.8
2017-Oct-14 16:57N 43°48' E 009°50'511.8
2017-Oct-14 16:31N 43°43' E 009°47'611.7
2017-Oct-14 15:59N 43°37' E 009°46'5 9.8
2017-Oct-14 15:30N 43°33' E 009°49'611.6
2017-Oct-14 15:00N 43°31' E 009°56'611.9
2017-Oct-14 14:31N 43°29' E 010°04'611.0
2017-Oct-14 14:00N 43°30' E 010°12'4 8.8
2017-Oct-14 13:31N 43°32' E 010°17'2 4.6
2017-Oct-14 13:00N 43°34' E 010°18'0 0.3
2017-Oct-14 12:28N 43°35' E 010°18'0 0.0
2017-Oct-14 11:58N 43°34' E 010°18'0 0.0
2017-Oct-14 11:25N 43°35' E 010°18'0 0.0
2017-Oct-14 10:55N 43°35' E 010°18'0 0.0
2017-Oct-14 10:28N 43°35' E 010°18'0 0.0
2017-Oct-14 09:58N 43°35' E 010°18'0 0.0
2017-Oct-14 09:25N 43°35' E 010°18'0 0.0
2017-Oct-14 08:58N 43°34' E 010°18'0 0.0
2017-Oct-14 08:28N 43°35' E 010°18'0 0.0
2017-Oct-14 07:58N 43°35' E 010°18'0 0.0
2017-Oct-14 07:28N 43°35' E 010°18'0 0.0
2017-Oct-14 06:52N 43°35' E 010°18'0 0.0
2017-Oct-14 06:28N 43°34' E 010°18'0 0.0
2017-Oct-14 05:52N 43°35' E 010°18'0 0.0
2017-Oct-14 05:28N 43°35' E 010°18'0 0.0
2017-Oct-14 04:58N 43°35' E 010°18'0 0.0
2017-Oct-14 04:28N 43°35' E 010°18'0 0.0
2017-Oct-14 03:58N 43°35' E 010°18'0 0.0
2017-Oct-14 03:28N 43°34' E 010°18'0 0.0
2017-Oct-14 02:55N 43°35' E 010°18'0 0.0
2017-Oct-14 02:28N 43°35' E 010°18'0 0.0
2017-Oct-14 01:55N 43°35' E 010°18'0 0.0
2017-Oct-14 01:28N 43°35' E 010°18'0 0.0
2017-Oct-14 00:55N 43°35' E 010°18'0 0.0
2017-Oct-14 00:28N 43°35' E 010°18'0 0.0
2017-Oct-13 23:58N 43°35' E 010°18'0 0.0
2017-Oct-13 23:25N 43°35' E 010°18'0 0.0
2017-Oct-13 22:55N 43°35' E 010°18'0 0.0
2017-Oct-13 22:28N 43°35' E 010°18'0 0.0
2017-Oct-13 21:58N 43°35' E 010°18'0 0.0
2017-Oct-13 21:16N 43°35' E 010°18'0 0.0
2017-Oct-13 20:58N 43°34' E 010°18'0 0.0
2017-Oct-13 20:19N 43°35' E 010°18'0 0.0
2017-Oct-13 19:52N 43°35' E 010°18'0 0.0
2017-Oct-13 19:28N 43°35' E 010°18'0 0.0
2017-Oct-13 18:58N 43°35' E 010°18'0 0.0
2017-Oct-13 18:25N 43°34' E 010°18'0 0.0
2017-Oct-13 17:58N 43°35' E 010°18'0 0.0
2017-Oct-13 17:25N 43°35' E 010°18'0 0.0
2017-Oct-13 16:58N 43°35' E 010°18'0 0.0
2017-Oct-13 16:28N 43°35' E 010°18'0 0.0
2017-Oct-13 15:58N 43°35' E 010°18'0 0.0
2017-Oct-13 15:08N 43°35' E 010°18'0 0.5
2017-Oct-13 15:00N 43°34' E 010°18'2 3.3
2017-Oct-13 14:27N 43°33' E 010°17'2 4.2
2017-Oct-13 14:00N 43°31' E 010°16'4 7.1
2017-Oct-13 13:29N 43°29' E 010°12'714.4
2017-Oct-13 13:00N 43°22' E 010°10'713.6
2017-Oct-13 12:30N 43°15' E 010°08'713.7
2017-Oct-13 12:00N 43°09' E 010°06'713.6
2017-Oct-13 11:30N 43°02' E 010°05'713.5
2017-Oct-13 11:00N 42°55' E 010°03'714.0
2017-Oct-13 10:30N 42°48' E 010°01'814.5
2017-Oct-13 09:56N 42°40' E 009°59'3112.5
2017-Oct-13 07:29N 42°12' E 010°15'714.5
2017-Oct-13 07:00N 42°09' E 010°23'18214.2
2017-Oct-12 18:10N 40°38' E 013°54'211.8
2017-Oct-12 18:00N 40°38' E 013°56'611.3
2017-Oct-12 17:30N 40°39' E 014°03'611.8
2017-Oct-12 17:00N 40°42' E 014°10'611.6
2017-Oct-12 16:30N 40°46' E 014°16'4 8.6
2017-Oct-12 16:00N 40°50' E 014°18'1 0.9
2017-Oct-12 15:21N 40°50' E 014°17'0 0.0
2017-Oct-12 14:51N 40°50' E 014°17'0 0.0
2017-Oct-12 14:21N 40°50' E 014°17'0 0.0
2017-Oct-12 13:39N 40°50' E 014°17'0 0.0
2017-Oct-12 13:24N 40°50' E 014°17'0 0.0
2017-Oct-12 12:51N 40°50' E 014°17'0 0.0
2017-Oct-12 11:51N 40°50' E 014°17'0 0.0
2017-Oct-12 11:21N 40°50' E 014°17'0 0.0
2017-Oct-12 10:57N 40°50' E 014°17'0 0.0
2017-Oct-12 10:21N 40°50' E 014°17'0 0.0
2017-Oct-12 08:27N 40°50' E 014°17'0 0.0
2017-Oct-12 07:57N 40°50' E 014°17'0 0.0
2017-Oct-12 07:27N 40°50' E 014°17'0 0.0
2017-Oct-12 06:57N 40°50' E 014°17'0 0.0
2017-Oct-12 06:27N 40°50' E 014°17'0 0.0
2017-Oct-11 18:09N 40°50' E 014°17'0 0.0
2017-Oct-11 17:57N 40°50' E 014°17'0 0.0
2017-Oct-11 17:27N 40°50' E 014°17'0 0.3
2017-Oct-11 17:00N 40°50' E 014°17'161 9.4
2017-Oct-10 23:51N 38°28' E 015°55'0 0.0
2017-Oct-10 23:21N 38°28' E 015°55'0 0.0
2017-Oct-10 23:00N 38°28' E 015°55'0 0.0
2017-Oct-10 22:27N 38°28' E 015°55'0 0.0
2017-Oct-10 22:00N 38°28' E 015°55'0 0.0
2017-Oct-10 21:03N 38°28' E 015°55'0 0.0
2017-Oct-10 20:57N 38°28' E 015°55'0 0.0
2017-Oct-10 19:27N 38°28' E 015°55'0 0.0
2017-Oct-10 07:51N 38°28' E 015°55'0 0.0
2017-Oct-10 07:30N 38°28' E 015°55'0 0.0
2017-Oct-10 06:51N 38°28' E 015°55'0 0.0
2017-Oct-10 06:30N 38°28' E 015°55'0 0.0
2017-Oct-10 06:00N 38°28' E 015°55'0 0.0
2017-Oct-10 05:27N 38°28' E 015°55'0 0.0
2017-Oct-10 04:54N 38°28' E 015°55'0 0.0
2017-Oct-10 04:30N 38°28' E 015°55'0 0.0
2017-Oct-10 04:00N 38°28' E 015°55'0 0.0
2017-Oct-10 03:30N 38°28' E 015°55'0 0.0
2017-Oct-10 03:00N 38°28' E 015°55'0 0.0
2017-Oct-10 02:27N 38°28' E 015°55'0 0.0
2017-Oct-10 02:00N 38°28' E 015°55'1 2.0
2017-Oct-10 01:30N 38°27' E 015°54'2 4.0
2017-Oct-10 01:00N 38°27' E 015°52'510.1
2017-Oct-10 00:30N 38°27' E 015°45'917.0
2017-Oct-10 00:00N 38°26' E 015°34'1019.2
2017-Oct-09 23:30N 38°25' E 015°22'918.9
2017-Oct-09 23:01N 38°22' E 015°11'918.6
2017-Oct-09 22:30N 38°19' E 014°60'918.4
2017-Oct-09 22:00N 38°19' E 014°48'918.4
2017-Oct-09 21:30N 38°19' E 014°36'918.7
2017-Oct-09 21:00N 38°19' E 014°24'1018.5
2017-Oct-09 20:28N 38°20' E 014°11'818.3
2017-Oct-09 20:00N 38°20' E 014°01'918.5
2017-Oct-09 19:30N 38°21' E 013°49'917.4
2017-Oct-09 19:00N 38°22' E 013°38'713.4
2017-Oct-09 18:30N 38°22' E 013°29'713.5
2017-Oct-09 18:00N 38°23' E 013°21'713.6
2017-Oct-09 17:30N 38°23' E 013°12'713.7
2017-Oct-09 17:00N 38°24' E 013°03'713.8
2017-Oct-09 16:30N 38°24' E 012°55'713.6
2017-Oct-09 16:00N 38°25' E 012°46'713.5
2017-Oct-09 15:30N 38°25' E 012°37'713.4
2017-Oct-09 15:00N 38°26' E 012°29'713.4
2017-Oct-09 14:29N 38°26' E 012°20'13714.0
2017-Oct-09 04:41N 38°37' E 009°25'212.9
2017-Oct-09 04:30N 38°37' E 009°22'713.0
2017-Oct-09 04:00N 38°38' E 009°14'813.2
2017-Oct-09 03:24N 38°38' E 009°04'913.2
2017-Oct-09 02:45N 38°39' E 008°53'413.3
2017-Oct-09 02:29N 38°39' E 008°48'613.2
2017-Oct-09 02:00N 38°39' E 008°40'26113.3
2017-Oct-08 06:24N 38°60' E 003°06'513.0
2017-Oct-08 06:00N 39°01' E 002°59'713.1
2017-Oct-08 05:30N 39°02' E 002°51'713.1
2017-Oct-08 05:00N 39°04' E 002°43'713.2
2017-Oct-08 04:30N 39°05' E 002°34'713.0
2017-Oct-08 04:00N 39°06' E 002°26'712.9
2017-Oct-08 03:29N 39°07' E 002°17'  

Dump ship's entire track history